Time;durP1;ratioP1;P1;durP2;ratioP2;P2;SDS_P1;SDS_P2;PMS_P1;PMS_P2;Temp;Humidity;BMP_temperature;BMP_pressure;BME280_temperature;BME280_humidity;BME280_pressure;Samples;Min_cycle;Max_cycle;Signal;HPM_P1;HPM_P2
2022/03/20 00:00:39;;;;;;;2.43;1.57;;;19.50;40.70;;;;;;5083463;27;88547;-66
2022/03/20 00:03:09;;;;;;;1.67;1.10;;;19.50;40.70;;;;;;5082520;27;89283;-66
2022/03/20 00:05:39;;;;;;;1.93;1.13;;;19.50;40.80;;;;;;5069371;27;88510;-65
2022/03/20 00:08:09;;;;;;;2.87;1.70;;;19.50;40.80;;;;;;5062786;27;88890;-66
2022/03/20 00:10:37;;;;;;;1.37;1.20;;;19.50;40.80;;;;;;5063347;27;88490;-66
2022/03/20 00:13:07;;;;;;;2.13;1.20;;;19.50;40.80;;;;;;5063042;27;89333;-66
2022/03/20 00:15:36;;;;;;;3.50;1.73;;;19.50;40.80;;;;;;5062697;27;93077;-66
2022/03/20 00:18:06;;;;;;;1.37;1.23;;;19.60;41.00;;;;;;5062656;27;88734;-66
2022/03/20 00:20:35;;;;;;;1.70;1.10;;;19.50;40.80;;;;;;5063930;27;88417;-66
2022/03/20 00:23:08;;;;;;;2.33;1.27;;;19.50;40.80;;;;;;5082477;27;89652;-66
2022/03/20 00:25:37;;;;;;;2.20;1.20;;;19.50;40.80;;;;;;5082948;27;91418;-66
2022/03/20 00:28:06;;;;;;;2.87;1.40;;;19.50;40.80;;;;;;5082884;27;88502;-65
2022/03/20 00:30:34;;;;;;;1.80;1.30;;;19.50;40.80;;;;;;5082323;27;88859;-66
2022/03/20 00:33:02;;;;;;;1.87;1.60;;;19.50;40.80;;;;;;5082250;27;89487;-66
2022/03/20 00:35:30;;;;;;;1.80;1.10;;;19.50;40.80;;;;;;5082822;27;88473;-66
2022/03/20 00:38:04;;;;;;;2.40;1.33;;;19.50;40.80;;;;;;5082106;27;88740;-66
2022/03/20 00:40:34;;;;;;;1.10;0.93;;;19.50;40.80;;;;;;5076729;27;88437;-66
2022/03/20 00:43:02;;;;;;;2.53;1.13;;;19.50;40.80;;;;;;5060360;27;89855;-66
2022/03/20 00:45:30;;;;;;;1.13;0.93;;;19.30;40.80;;;;;;5061400;27;91486;-66
2022/03/20 00:47:58;;;;;;;1.80;1.27;;;19.50;41.00;;;;;;5061512;27;88562;-66
2022/03/20 00:50:26;;;;;;;1.90;1.40;;;19.50;41.40;;;;;;5068214;27;88593;-66
2022/03/20 00:52:54;;;;;;;0.97;0.80;;;19.50;40.80;;;;;;5079801;27;90706;-67
2022/03/20 00:55:22;;;;;;;2.33;1.10;;;19.50;40.80;;;;;;5082136;27;92309;-66
2022/03/20 00:57:51;;;;;;;2.00;1.17;;;19.50;40.80;;;;;;5082302;27;89167;-66
2022/03/20 01:00:20;;;;;;;1.70;0.90;;;19.50;40.90;;;;;;5076361;27;88615;-66
2022/03/20 01:02:48;;;;;;;1.37;1.20;;;19.50;41.10;;;;;;5062088;27;92566;-66
2022/03/20 01:05:16;;;;;;;1.77;1.20;;;19.50;41.10;;;;;;5062938;27;88767;-66
2022/03/20 01:07:44;;;;;;;1.37;0.80;;;19.40;41.10;;;;;;5081278;27;88850;-66
2022/03/20 01:10:13;;;;;;;2.10;1.07;;;19.40;41.20;;;;;;5077474;27;88697;-67
2022/03/20 01:12:41;;;;;;;1.83;1.10;;;19.40;41.30;;;;;;5061167;27;89003;-66
2022/03/20 01:15:12;;;;;;;1.73;1.20;;;19.40;41.40;;;;;;5061209;27;89173;-66
2022/03/20 01:17:40;;;;;;;1.27;0.80;;;19.40;41.50;;;;;;5061008;27;88288;-66
2022/03/20 01:20:10;;;;;;;1.90;0.80;;;19.40;41.50;;;;;;5065412;27;88494;-66
2022/03/20 01:22:40;;;;;;;1.60;1.03;;;19.40;41.50;;;;;;5081930;27;92597;-66
2022/03/20 01:25:11;;;;;;;2.50;1.10;;;19.40;41.50;;;;;;5062118;27;89081;-66
2022/03/20 01:27:39;;;;;;;1.77;1.03;;;19.40;41.50;;;;;;5061515;27;88374;-66
2022/03/20 01:30:08;;;;;;;2.33;1.00;;;19.30;41.50;;;;;;5079137;27;88745;-66
2022/03/20 01:32:38;;;;;;;1.57;1.20;;;19.30;41.50;;;;;;5081243;27;89478;-66
2022/03/20 01:35:09;;;;;;;1.27;1.07;;;19.30;41.50;;;;;;5079176;27;90332;-66
2022/03/20 01:37:39;;;;;;;1.90;0.90;;;19.30;41.50;;;;;;5073296;27;92954;-66
2022/03/20 01:40:09;;;;;;;1.30;1.17;;;19.30;41.50;;;;;;5060948;27;88256;-66
2022/03/20 01:42:38;;;;;;;2.03;1.30;;;19.30;41.60;;;;;;5060125;27;89885;-66
2022/03/20 01:45:14;;;;;;;1.67;1.00;;;19.30;41.60;;;;;;5060764;27;91310;-66
2022/03/20 01:47:47;;;;;;;1.17;0.73;;;19.30;41.60;;;;;;5060417;27;88390;-66
2022/03/20 01:50:15;;;;;;;2.00;1.10;;;19.30;41.60;;;;;;5061715;27;88600;-66
2022/03/20 01:52:45;;;;;;;0.83;0.80;;;19.30;41.60;;;;;;5081976;27;90686;-66
2022/03/20 01:55:14;;;;;;;1.40;1.20;;;19.30;41.60;;;;;;5078839;27;89630;-66
2022/03/20 01:57:44;;;;;;;1.50;0.97;;;19.30;41.60;;;;;;5059834;27;88588;-66
2022/03/20 02:00:13;;;;;;;1.27;1.00;;;19.30;41.60;;;;;;5060798;27;88391;-66
2022/03/20 02:02:41;;;;;;;1.10;1.00;;;19.30;41.60;;;;;;5061167;27;89842;-66
2022/03/20 02:05:11;;;;;;;2.63;1.10;;;19.30;41.60;;;;;;5062596;27;90829;-66
2022/03/20 02:07:40;;;;;;;1.50;1.20;;;19.30;41.60;;;;;;5060396;27;88942;-66
2022/03/20 02:10:09;;;;;;;2.20;1.00;;;19.30;41.60;;;;;;5060640;27;88352;-66
2022/03/20 02:12:38;;;;;;;1.50;0.70;;;19.20;41.50;;;;;;5059856;27;90889;-66
2022/03/20 02:15:09;;;;;;;1.73;1.13;;;19.20;41.50;;;;;;5060483;27;89255;-65
2022/03/20 02:17:38;;;;;;;1.50;0.87;;;19.20;41.50;;;;;;5065960;27;88774;-67
2022/03/20 02:20:08;;;;;;;0.97;0.87;;;19.20;41.50;;;;;;5080876;27;88455;-67
2022/03/20 02:22:40;;;;;;;1.93;1.00;;;19.20;41.50;;;;;;5080106;27;91467;-66
2022/03/20 02:25:10;;;;;;;1.33;0.80;;;19.20;41.50;;;;;;5064349;27;90069;-66
2022/03/20 02:27:40;;;;;;;1.83;0.80;;;19.20;41.50;;;;;;5081142;27;88397;-66
2022/03/20 02:30:13;;;;;;;1.73;1.20;;;19.20;41.50;;;;;;5080561;27;88610;-67
2022/03/20 02:32:42;;;;;;;1.43;1.00;;;19.20;41.50;;;;;;5080729;27;90012;-66
2022/03/20 02:35:15;;;;;;;1.00;0.90;;;19.20;41.50;;;;;;5079677;27;88642;-66
2022/03/20 02:37:46;;;;;;;1.67;1.30;;;19.10;41.40;;;;;;5079459;27;88454;-66
2022/03/20 02:40:14;;;;;;;1.67;1.27;;;19.10;41.40;;;;;;5080904;27;88543;-66
2022/03/20 02:42:44;;;;;;;2.83;0.93;;;19.20;41.50;;;;;;5068936;27;89958;-66
2022/03/20 02:45:13;;;;;;;1.20;1.10;;;19.10;41.40;;;;;;5074230;27;93357;-67
2022/03/20 02:47:42;;;;;;;1.07;0.80;;;19.10;41.40;;;;;;5079762;27;88574;-66
2022/03/20 02:50:11;;;;;;;1.40;1.03;;;19.10;41.40;;;;;;5079629;27;88401;-66
2022/03/20 02:52:48;;;;;;;1.63;1.00;;;19.10;41.40;;;;;;5080432;27;90209;-67
2022/03/20 02:55:17;;;;;;;1.50;1.10;;;19.10;41.40;;;;;;5079973;27;88966;-66
2022/03/20 02:57:47;;;;;;;2.63;1.40;;;19.10;41.40;;;;;;5077969;27;88448;-66
2022/03/20 03:00:17;;;;;;;1.97;1.10;;;19.10;41.40;;;;;;5062028;27;88675;-66
2022/03/20 03:02:46;;;;;;;1.50;1.00;;;19.10;41.40;;;;;;5059604;27;89426;-66
2022/03/20 03:05:16;;;;;;;3.37;1.13;;;19.10;41.40;;;;;;5061917;27;89923;-66
2022/03/20 03:13:18;;;;;;;1.40;1.20;;;19.00;41.40;;;;;;5058488;27;89593;-66
2022/03/20 03:15:46;;;;;;;1.37;1.10;;;19.00;41.40;;;;;;5062272;27;89441;-66
2022/03/20 03:18:17;;;;;;;1.37;1.07;;;19.10;41.40;;;;;;5079443;27;90939;-66
2022/03/20 03:20:47;;;;;;;1.77;1.10;;;19.00;41.40;;;;;;5078663;27;88631;-66
2022/03/20 03:23:15;;;;;;;1.83;1.40;;;19.00;41.40;;;;;;5070257;27;91002;-66
2022/03/20 03:25:45;;;;;;;1.87;1.40;;;19.00;41.40;;;;;;5059346;27;88834;-66
2022/03/20 03:28:13;;;;;;;2.40;1.23;;;19.00;41.40;;;;;;5058974;27;88990;-66
2022/03/20 03:30:43;;;;;;;1.30;1.00;;;19.00;41.40;;;;;;5059300;27;88676;-66
2022/03/20 03:33:11;;;;;;;1.80;1.50;;;19.00;41.40;;;;;;5059835;27;90824;-66
2022/03/20 03:35:42;;;;;;;2.33;1.30;;;19.00;41.30;;;;;;5060739;27;89420;-66
2022/03/20 03:38:11;;;;;;;2.53;1.20;;;19.00;41.40;;;;;;5066927;27;89672;-66
2022/03/20 03:40:39;;;;;;;1.97;1.70;;;19.00;41.30;;;;;;5059685;27;88546;-66
2022/03/20 03:43:09;;;;;;;1.50;1.40;;;19.00;41.30;;;;;;5062158;27;89581;-66
2022/03/20 03:45:39;;;;;;;2.13;1.10;;;19.00;41.40;;;;;;5059118;27;90096;-67
2022/03/20 03:48:08;;;;;;;1.37;1.23;;;19.00;41.30;;;;;;5059387;27;91624;-66
2022/03/20 03:50:36;;;;;;;1.60;1.30;;;19.00;41.30;;;;;;5060937;27;88521;-66
2022/03/20 03:53:05;;;;;;;2.77;1.70;;;18.90;41.20;;;;;;5057737;27;89566;-66
2022/03/20 03:55:33;;;;;;;1.97;1.43;;;18.90;41.20;;;;;;5059205;27;88793;-66
2022/03/20 03:58:01;;;;;;;2.33;1.40;;;18.90;41.20;;;;;;5059086;27;89131;-66
2022/03/20 04:00:32;;;;;;;1.50;1.40;;;18.90;41.20;;;;;;5058428;27;88599;-67
2022/03/20 04:03:00;;;;;;;2.07;1.40;;;18.90;41.20;;;;;;5059295;27;90087;-66
2022/03/20 04:05:29;;;;;;;1.60;1.20;;;18.90;41.20;;;;;;5058787;27;90452;-66
2022/03/20 04:07:59;;;;;;;1.23;1.17;;;18.90;41.20;;;;;;5058886;27;89549;-66
2022/03/20 04:10:28;;;;;;;1.53;1.23;;;18.90;41.20;;;;;;5059419;27;88589;-66
2022/03/20 04:12:56;;;;;;;1.50;1.40;;;18.90;41.10;;;;;;5058898;27;89616;-66
2022/03/20 04:15:25;;;;;;;2.17;1.77;;;18.80;41.10;;;;;;5058466;27;89213;-66
2022/03/20 04:17:56;;;;;;;3.23;1.40;;;18.80;41.10;;;;;;5060692;27;88431;-66
2022/03/20 04:20:24;;;;;;;2.60;1.50;;;18.80;41.10;;;;;;5059075;27;88560;-66
2022/03/20 04:25:39;;;;;;;1.87;1.43;;;18.80;41.70;;;;;;5058531;27;88406;-66
2022/03/20 04:28:07;;;;;;;1.40;1.30;;;18.90;41.20;;;;;;5058604;27;91270;-66
2022/03/20 04:30:36;;;;;;;1.43;1.33;;;18.80;41.10;;;;;;5066612;27;88498;-66
2022/03/20 04:33:05;;;;;;;5.20;1.33;;;18.80;41.10;;;;;;5082097;27;90556;-66
2022/03/20 04:35:33;;;;;;;1.27;1.10;;;18.80;41.10;;;;;;5063034;27;91338;-66
2022/03/20 04:38:04;;;;;;;1.73;1.40;;;18.80;41.10;;;;;;5074392;27;88560;-66
2022/03/20 04:40:32;;;;;;;2.53;1.23;;;18.80;41.70;;;;;;5082712;27;88454;-66
2022/03/20 04:43:00;;;;;;;2.20;1.43;;;18.80;41.10;;;;;;5081225;27;91215;-67
2022/03/20 04:45:28;;;;;;;3.00;1.33;;;18.80;41.10;;;;;;5078727;27;89505;-65
2022/03/20 04:58:56;;;;;;;2.00;1.30;;;18.80;41.10;;;;;;5076640;27;92776;-66
2022/03/20 05:01:24;;;;;;;1.63;1.20;;;18.80;41.10;;;;;;5060874;27;88445;-66
2022/03/20 05:03:53;;;;;;;1.67;1.33;;;18.70;41.10;;;;;;5078278;27;93731;-66
2022/03/20 05:06:22;;;;;;;2.67;1.13;;;18.70;41.00;;;;;;5081560;27;90054;-66
2022/03/20 05:08:50;;;;;;;3.23;1.63;;;18.70;41.00;;;;;;5081101;27;88801;-66
2022/03/20 05:14:04;;;;;;;1.93;1.30;;;18.70;41.00;;;;;;5060882;27;91431;-66
2022/03/20 05:16:32;;;;;;;1.97;1.30;;;18.70;41.00;;;;;;5061101;27;92830;-66
2022/03/20 05:19:00;;;;;;;1.43;1.33;;;18.70;41.00;;;;;;5076869;27;89016;-66
2022/03/20 05:21:29;;;;;;;1.50;1.40;;;18.70;41.00;;;;;;5081813;27;88539;-67
2022/03/20 05:23:57;;;;;;;2.03;1.60;;;18.70;41.00;;;;;;5080789;27;90026;-66
2022/03/20 05:26:28;;;;;;;1.97;1.10;;;18.60;40.90;;;;;;5081974;27;93171;-66
2022/03/20 05:28:56;;;;;;;2.40;1.10;;;18.70;41.00;;;;;;5064708;27;88543;-66
2022/03/20 05:31:24;;;;;;;2.00;1.40;;;18.60;40.90;;;;;;5061322;27;88805;-66
2022/03/20 05:33:52;;;;;;;1.20;1.10;;;18.60;40.90;;;;;;5060051;27;89471;-67
2022/03/20 05:36:20;;;;;;;1.47;1.10;;;18.60;40.90;;;;;;5068575;27;89601;-66
2022/03/20 05:38:49;;;;;;;1.50;1.23;;;18.60;40.90;;;;;;5066919;27;89212;-66
2022/03/20 05:44:03;;;;;;;1.37;1.27;;;18.60;40.90;;;;;;5061046;27;93723;-66
2022/03/20 05:46:31;;;;;;;2.67;1.17;;;18.60;40.90;;;;;;5069119;27;92497;-66
2022/03/20 05:48:59;;;;;;;1.20;1.10;;;18.60;40.90;;;;;;5080801;27;89158;-66
2022/03/20 05:51:27;;;;;;;1.67;1.43;;;18.60;40.90;;;;;;5065395;27;88632;-66
2022/03/20 05:53:57;;;;;;;1.30;0.97;;;18.60;41.60;;;;;;5060613;27;89483;-65
2022/03/20 05:59:11;;;;;;;1.27;1.17;;;18.60;40.90;;;;;;5059779;27;88481;-66
2022/03/20 06:01:39;;;;;;;2.27;1.23;;;18.60;40.90;;;;;;5064185;27;88481;-66
2022/03/20 06:04:08;;;;;;;1.90;1.40;;;18.60;40.90;;;;;;5060790;27;89491;-66
2022/03/20 06:06:36;;;;;;;1.20;1.10;;;18.60;40.90;;;;;;5060640;27;90505;-66
2022/03/20 06:09:06;;;;;;;2.57;1.23;;;18.60;40.90;;;;;;5060877;27;88980;-66
2022/03/20 06:11:34;;;;;;;2.53;1.43;;;18.50;40.80;;;;;;5060074;27;88621;-65
2022/03/20 06:14:02;;;;;;;3.97;1.63;;;18.60;40.90;;;;;;5059739;27;90641;-65
2022/03/20 06:16:35;;;;;;;1.70;1.00;;;18.50;40.80;;;;;;5071792;27;92931;-66
2022/03/20 06:19:22;;;;;;;1.17;1.07;;;18.50;40.80;;;;;;5087961;27;88571;-66
2022/03/20 06:21:51;;;;;;;1.93;1.33;;;18.50;40.80;;;;;;5081952;27;88406;-66
2022/03/20 06:24:21;;;;;;;1.57;1.47;;;18.50;40.90;;;;;;5067070;27;90720;-66
2022/03/20 06:26:49;;;;;;;2.40;1.50;;;18.50;40.90;;;;;;5077011;27;89333;-66
2022/03/20 06:29:16;;;;;;;1.40;1.30;;;18.50;40.90;;;;;;5073833;27;88797;-66
2022/03/20 06:31:45;;;;;;;1.60;1.50;;;18.60;41.00;;;;;;5060499;27;88456;-65
2022/03/20 06:34:14;;;;;;;1.70;1.40;;;18.50;40.90;;;;;;5067863;27;90720;-66
2022/03/20 06:36:42;;;;;;;2.00;1.20;;;18.50;40.80;;;;;;5080362;27;91451;-66
2022/03/20 06:39:10;;;;;;;1.70;1.27;;;18.50;41.50;;;;;;5071420;27;89152;-65
2022/03/20 06:41:39;;;;;;;4.43;1.63;;;18.50;40.80;;;;;;5080174;27;88641;-66
2022/03/20 06:44:15;;;;;;;1.50;1.40;;;18.50;40.80;;;;;;5078865;27;89584;-66
2022/03/20 06:46:44;;;;;;;1.57;1.40;;;18.50;40.80;;;;;;5080129;27;89412;-66
2022/03/20 06:49:12;;;;;;;4.83;1.67;;;18.50;40.70;;;;;;5075194;27;88879;-67
2022/03/20 06:51:41;;;;;;;2.03;1.17;;;18.50;40.70;;;;;;5061870;27;88443;-66
2022/03/20 06:54:09;;;;;;;4.07;1.50;;;18.50;40.80;;;;;;5065940;27;90240;-68
2022/03/20 06:56:39;;;;;;;2.80;1.60;;;18.60;40.90;;;;;;5060833;27;88826;-67
2022/03/20 06:59:07;;;;;;;1.50;1.30;;;18.50;40.80;;;;;;5073547;27;88553;-67
2022/03/20 07:01:35;;;;;;;3.37;1.40;;;18.60;40.90;;;;;;5080059;27;88938;-68
2022/03/20 07:04:03;;;;;;;1.60;1.30;;;18.60;41.00;;;;;;5079913;27;89679;-67
2022/03/20 07:06:31;;;;;;;1.83;1.50;;;18.60;41.00;;;;;;5079693;27;90014;-67
2022/03/20 07:09:01;;;;;;;2.20;1.30;;;18.60;41.80;;;;;;5079786;27;90264;-67
2022/03/20 07:11:32;;;;;;;1.73;1.40;;;18.60;41.20;;;;;;5079701;27;88321;-67
2022/03/20 07:14:03;;;;;;;1.33;1.20;;;18.70;41.40;;;;;;5065893;27;90556;-67
2022/03/20 07:16:33;;;;;;;1.70;1.43;;;18.70;41.50;;;;;;5061067;27;88995;-67
2022/03/20 07:19:02;;;;;;;1.50;1.33;;;18.70;41.50;;;;;;5065426;27;90006;-69
2022/03/20 07:21:32;;;;;;;3.60;1.77;;;18.70;41.60;;;;;;5074409;27;88600;-69
2022/03/20 07:24:00;;;;;;;2.03;1.43;;;18.70;42.30;;;;;;5066770;27;90561;-67
2022/03/20 07:29:33;;;;;;;1.50;1.30;;;18.80;41.90;;;;;;5067003;27;89254;-67
2022/03/20 07:32:02;;;;;;;5.87;1.77;;;18.70;41.90;;;;;;5080462;27;88539;-67
2022/03/20 07:34:31;;;;;;;1.63;1.40;;;18.70;42.00;;;;;;5078422;27;90029;-67
2022/03/20 07:36:59;;;;;;;5.43;1.47;;;18.70;42.00;;;;;;5079995;27;90184;-68
2022/03/20 07:39:28;;;;;;;2.47;1.63;;;18.70;42.10;;;;;;5065550;27;88678;-67
2022/03/20 07:41:56;;;;;;;3.33;1.30;;;18.70;42.20;;;;;;5059177;27;88519;-67
2022/03/20 07:44:26;;;;;;;2.37;1.63;;;18.70;42.20;;;;;;5063078;27;90882;-67
2022/03/20 07:46:54;;;;;;;2.03;1.70;;;18.70;42.30;;;;;;5072092;27;92349;-68
2022/03/20 07:49:22;;;;;;;2.87;1.53;;;18.70;42.30;;;;;;5079847;27;89374;-68
2022/03/20 07:51:53;;;;;;;2.17;1.50;;;18.80;42.50;;;;;;5061470;27;88983;-68
2022/03/20 07:54:21;;;;;;;1.17;1.10;;;18.70;42.40;;;;;;5036991;28;90273;-68
2022/03/20 07:56:49;;;;;;;2.43;1.43;;;18.70;42.50;;;;;;5038696;27;89166;-67
2022/03/20 07:59:17;;;;;;;2.03;1.33;;;18.70;42.50;;;;;;5039296;28;88689;-67
2022/03/20 08:01:46;;;;;;;2.80;1.50;;;18.70;42.50;;;;;;5036393;27;88636;-67
2022/03/20 08:04:16;;;;;;;3.57;1.57;;;18.70;42.60;;;;;;5041930;27;89523;-68
2022/03/20 08:06:44;;;;;;;1.33;1.20;;;18.70;42.60;;;;;;5042540;28;89994;-67
2022/03/20 08:09:12;;;;;;;1.13;1.03;;;18.70;42.60;;;;;;5041293;28;91788;-67
2022/03/20 08:11:40;;;;;;;1.40;1.30;;;18.70;42.60;;;;;;5040523;27;88631;-68
2022/03/20 08:14:09;;;;;;;2.13;1.53;;;18.70;42.70;;;;;;5041565;28;92583;-68
2022/03/20 08:16:38;;;;;;;1.63;1.50;;;18.70;42.80;;;;;;5034264;28;89577;-68
2022/03/20 08:19:09;;;;;;;1.43;1.07;;;18.70;42.90;;;;;;5031202;28;89066;-69
2022/03/20 08:21:38;;;;;;;1.83;1.33;;;18.70;42.90;;;;;;5030050;28;89598;-69
2022/03/20 08:24:07;;;;;;;1.40;1.27;;;18.70;42.90;;;;;;5031628;28;90795;-69
2022/03/20 08:26:35;;;;;;;3.07;1.90;;;18.70;42.90;;;;;;5039626;28;90232;-69
2022/03/20 08:29:03;;;;;;;3.87;2.20;;;18.70;42.90;;;;;;5021908;28;88516;-69
2022/03/20 08:31:34;;;;;;;1.97;1.53;;;18.70;42.90;;;;;;5021436;28;88268;-69
2022/03/20 08:34:04;;;;;;;3.50;1.93;;;18.70;42.90;;;;;;5031194;28;92981;-68
2022/03/20 08:36:34;;;;;;;2.80;2.30;;;18.70;42.90;;;;;;5041401;28;88800;-68
2022/03/20 08:39:04;;;;;;;2.40;1.63;;;18.70;42.90;;;;;;5040257;28;88732;-68
2022/03/20 08:41:34;;;;;;;3.30;2.43;;;18.70;42.80;;;;;;5019429;28;88868;-70
2022/03/20 08:44:02;;;;;;;2.53;1.90;;;18.60;42.80;;;;;;5018797;28;93296;-69
2022/03/20 08:46:30;;;;;;;2.40;2.07;;;18.60;42.70;;;;;;5019232;28;88815;-69
2022/03/20 08:49:03;;;;;;;3.77;2.00;;;18.60;42.60;;;;;;5019039;28;89058;-68
2022/03/20 08:51:34;;;;;;;4.60;2.40;;;18.60;42.60;;;;;;5018576;28;89890;-69
2022/03/20 08:54:02;;;;;;;3.43;2.57;;;18.60;42.50;;;;;;5054187;27;90092;-68
2022/03/20 08:56:31;;;;;;;2.87;1.80;;;18.60;42.50;;;;;;5061377;27;89955;-69
2022/03/20 08:58:59;;;;;;;2.47;2.27;;;18.60;42.40;;;;;;5079687;27;90811;-69
2022/03/20 09:01:27;;;;;;;3.33;2.00;;;18.60;42.40;;;;;;5082310;27;88563;-69
2022/03/20 09:03:55;;;;;;;4.30;2.67;;;18.60;42.40;;;;;;5082419;27;89783;-69
2022/03/20 09:06:25;;;;;;;2.70;2.03;;;18.60;42.30;;;;;;5072231;27;89468;-68
2022/03/20 09:08:55;;;;;;;3.23;2.40;;;18.60;42.30;;;;;;5080974;27;89777;-68
2022/03/20 09:11:23;;;;;;;2.63;2.10;;;18.60;42.30;;;;;;5081164;27;88355;-68
2022/03/20 09:13:54;;;;;;;5.60;2.60;;;18.60;42.10;;;;;;5062820;27;90212;-69
2022/03/20 09:19:11;;;;;;;3.40;2.60;;;18.60;42.10;;;;;;5081601;27;88858;-68
2022/03/20 09:21:42;;;;;;;2.63;2.10;;;18.60;42.00;;;;;;5079818;27;88375;-69
2022/03/20 09:24:11;;;;;;;3.27;2.43;;;18.50;41.90;;;;;;5081267;27;90665;-69
2022/03/20 09:26:40;;;;;;;4.27;2.63;;;18.50;41.90;;;;;;5081791;27;89955;-68
2022/03/20 09:29:08;;;;;;;3.80;2.70;;;18.50;41.90;;;;;;5080863;27;89049;-68
2022/03/20 09:31:37;;;;;;;3.17;2.63;;;18.50;41.90;;;;;;5081054;27;88519;-69
2022/03/20 09:34:10;;;;;;;3.00;2.50;;;18.50;41.90;;;;;;5059782;27;92666;-69
2022/03/20 09:36:39;;;;;;;3.60;2.53;;;18.50;41.90;;;;;;5074512;27;90167;-69
2022/03/20 09:39:08;;;;;;;4.47;2.50;;;18.40;41.80;;;;;;5081461;27;88784;-69
2022/03/20 09:41:39;;;;;;;3.23;2.33;;;18.50;41.90;;;;;;5081429;27;88406;-68
2022/03/20 09:44:08;;;;;;;2.57;2.20;;;18.40;41.70;;;;;;5081079;27;90665;-69
2022/03/20 09:46:37;;;;;;;4.47;2.57;;;18.40;41.70;;;;;;5080875;27;90509;-68
2022/03/20 09:49:06;;;;;;;3.37;2.70;;;18.40;41.70;;;;;;5078701;27;91483;-69
2022/03/20 09:51:34;;;;;;;4.77;2.60;;;18.40;41.60;;;;;;5081450;27;88661;-68
2022/03/20 09:54:02;;;;;;;4.07;2.57;;;18.40;41.60;;;;;;5080397;27;90663;-69
2022/03/20 09:56:30;;;;;;;5.50;2.77;;;18.40;41.60;;;;;;5078396;27;89638;-69
2022/03/20 09:59:00;;;;;;;3.40;2.27;;;18.40;41.60;;;;;;5075851;27;89851;-69
2022/03/20 10:01:28;;;;;;;5.33;2.73;;;18.40;41.50;;;;;;5080994;27;88409;-69
2022/03/20 10:04:12;;;;;;;5.17;2.70;;;18.40;41.50;;;;;;5081178;27;90696;-70
2022/03/20 10:06:45;;;;;;;4.67;3.07;;;18.40;41.60;;;;;;5060545;27;88343;-69
2022/03/20 10:09:15;;;;;;;5.53;3.30;;;18.40;41.50;;;;;;5064075;27;89243;-70
2022/03/20 10:11:48;;;;;;;3.60;2.80;;;18.40;41.50;;;;;;5080750;27;88733;-69
2022/03/20 10:14:18;;;;;;;4.50;2.57;;;18.40;41.50;;;;;;5080413;27;90598;-68
2022/03/20 10:16:49;;;;;;;3.80;3.33;;;18.30;41.40;;;;;;5079323;27;89854;-68
2022/03/20 10:19:27;;;;;;;3.33;2.80;;;18.30;41.40;;;;;;5079531;27;88933;-68
2022/03/20 10:21:56;;;;;;;5.63;3.30;;;18.30;41.40;;;;;;5079521;27;88568;-68
2022/03/20 10:24:25;;;;;;;4.77;2.93;;;18.30;41.40;;;;;;5080390;27;90087;-69
2022/03/20 10:27:03;;;;;;;4.67;2.80;;;18.30;41.40;;;;;;5079449;27;90133;-69
2022/03/20 10:29:33;;;;;;;4.57;3.13;;;18.30;41.40;;;;;;5079049;27;89918;-69
2022/03/20 10:32:01;;;;;;;3.13;2.70;;;18.40;41.40;;;;;;5078366;27;88629;-69
2022/03/20 10:34:30;;;;;;;7.07;3.13;;;18.30;41.30;;;;;;5077817;27;90690;-69
2022/03/20 10:36:58;;;;;;;3.93;2.63;;;18.30;41.30;;;;;;5068112;27;89945;-70
2022/03/20 10:39:27;;;;;;;3.97;2.50;;;18.30;41.30;;;;;;5058224;27;88744;-70
2022/03/20 10:41:56;;;;;;;5.40;2.97;;;18.30;41.20;;;;;;5057874;27;88532;-69
2022/03/20 10:44:33;;;;;;;5.20;2.90;;;18.30;41.20;;;;;;5072442;27;91111;-69
2022/03/20 10:47:09;;;;;;;7.03;3.20;;;18.30;41.10;;;;;;5079888;27;90423;-69
2022/03/20 10:49:38;;;;;;;4.97;2.80;;;18.30;41.10;;;;;;5078722;27;88903;-70
2022/03/20 10:52:07;;;;;;;5.23;2.67;;;18.40;41.10;;;;;;5059586;27;88579;-69
2022/03/20 10:54:42;;;;;;;4.17;3.00;;;18.40;41.00;;;;;;5077680;27;93154;-69
2022/03/20 10:57:12;;;;;;;3.83;2.90;;;18.40;41.00;;;;;;5069117;27;89241;-69
2022/03/20 10:59:42;;;;;;;5.40;3.30;;;18.40;41.00;;;;;;5068864;27;88830;-69
2022/03/20 11:02:20;;;;;;;4.00;2.73;;;18.40;41.00;;;;;;5077428;27;88609;-70
2022/03/20 11:04:49;;;;;;;4.17;2.63;;;18.30;40.90;;;;;;5069292;27;92900;-70
2022/03/20 11:07:17;;;;;;;3.30;2.40;;;18.30;40.80;;;;;;5080252;27;90023;-70
2022/03/20 11:09:46;;;;;;;5.67;3.17;;;18.30;40.80;;;;;;5079815;27;88499;-69
2022/03/20 11:12:15;;;;;;;4.90;2.73;;;18.40;40.90;;;;;;5079552;27;88582;-69
2022/03/20 11:14:45;;;;;;;4.37;3.17;;;18.40;40.90;;;;;;5074770;27;90101;-69
2022/03/20 11:17:17;;;;;;;5.23;3.17;;;18.40;40.80;;;;;;5077865;27;92392;-70
2022/03/20 11:19:50;;;;;;;4.23;3.30;;;18.30;40.70;;;;;;5079112;27;90436;-69
2022/03/20 11:22:20;;;;;;;5.60;2.97;;;18.40;40.80;;;;;;5079726;27;88493;-70
2022/03/20 11:24:49;;;;;;;4.67;3.10;;;18.40;40.80;;;;;;5080062;27;89401;-70
2022/03/20 11:27:24;;;;;;;3.77;3.23;;;18.40;40.70;;;;;;5079768;27;90086;-70
2022/03/20 11:29:57;;;;;;;5.63;3.33;;;18.40;40.70;;;;;;5070292;27;88742;-68
2022/03/20 11:32:25;;;;;;;5.17;2.77;;;18.40;40.70;;;;;;5067963;27;88431;-68
2022/03/20 11:34:53;;;;;;;5.50;3.40;;;18.40;40.70;;;;;;5079461;27;90733;-68
2022/03/20 11:37:21;;;;;;;2.57;2.37;;;18.40;40.70;;;;;;5060808;27;90343;-68
2022/03/20 11:40:09;;;;;;;4.33;2.67;;;18.40;40.70;;;;;;5062906;27;89362;-68
2022/03/20 11:42:37;;;;;;;5.83;3.43;;;18.40;40.80;;;;;;5063513;27;88387;-68
2022/03/20 11:45:16;;;;;;;4.03;2.50;;;18.40;40.70;;;;;;5081854;27;90631;-68
2022/03/20 11:47:45;;;;;;;5.47;2.70;;;18.40;40.80;;;;;;5079953;27;90268;-69
2022/03/20 11:50:19;;;;;;;3.63;2.73;;;18.50;40.80;;;;;;5072223;27;91084;-69
2022/03/20 11:52:54;;;;;;;3.83;2.37;;;18.50;40.80;;;;;;5064412;27;88569;-69
2022/03/20 11:55:26;;;;;;;2.83;2.53;;;18.60;41.00;;;;;;5067686;27;90628;-68
2022/03/20 11:57:54;;;;;;;4.70;3.63;;;18.50;40.90;;;;;;5083225;27;92082;-68
2022/03/20 12:00:25;;;;;;;4.27;3.07;;;18.50;41.00;;;;;;5078637;27;89830;-70
2022/03/20 12:03:25;;;;;;;4.53;2.93;;;18.50;41.00;;;;;;5069806;27;89460;-70
2022/03/20 12:06:06;;;;;;;7.60;3.57;;;18.50;41.10;;;;;;5062300;27;90545;-69
2022/03/20 12:08:43;;;;;;;6.67;3.13;;;18.50;41.10;;;;;;5072268;27;88257;-70
2022/03/20 12:11:20;;;;;;;9.23;4.00;;;18.50;41.20;;;;;;5083135;27;88910;-70
2022/03/20 12:13:50;;;;;;;4.23;3.33;;;18.50;41.20;;;;;;5082389;27;88649;-69
2022/03/20 12:16:51;;;;;;;7.63;3.83;;;18.50;41.20;;;;;;5067529;27;90636;-69
2022/03/20 12:19:21;;;;;;;6.67;3.47;;;18.50;41.20;;;;;;5061952;27;90577;-69
2022/03/20 12:21:56;;;;;;;6.13;4.17;;;18.50;41.10;;;;;;5080483;27;88835;-69
2022/03/20 12:24:51;;;;;;;4.27;3.43;;;18.50;41.20;;;;;;5064360;27;88413;-69
2022/03/20 12:27:41;;;;;;;4.63;3.17;;;18.50;41.20;;;;;;5061813;27;90719;-69
2022/03/20 12:30:35;;;;;;;4.97;3.50;;;18.50;41.20;;;;;;5062388;27;90923;-71
2022/03/20 12:33:04;;;;;;;5.33;3.63;;;18.50;41.20;;;;;;5061880;27;88873;-69
2022/03/20 12:35:45;;;;;;;7.80;4.27;;;18.50;41.10;;;;;;5071823;27;88554;-70
2022/03/20 12:38:32;;;;;;;7.93;4.13;;;18.50;41.10;;;;;;5082859;27;90206;-69
2022/03/20 12:41:07;;;;;;;6.47;4.50;;;18.50;41.20;;;;;;5082279;27;90300;-69
2022/03/20 12:43:35;;;;;;;7.47;4.73;;;18.50;41.00;;;;;;5082499;27;91473;-69
2022/03/20 12:46:03;;;;;;;7.47;4.33;;;18.50;41.00;;;;;;5082477;27;88611;-70
2022/03/20 12:48:33;;;;;;;7.30;4.67;;;18.50;41.00;;;;;;5077071;27;90588;-69
2022/03/20 12:51:09;;;;;;;7.57;4.90;;;18.50;41.00;;;;;;5068752;27;89081;-69
2022/03/20 12:53:38;;;;;;;6.63;5.23;;;18.60;41.00;;;;;;5061509;27;89105;-69
2022/03/20 12:56:09;;;;;;;7.53;4.90;;;18.60;41.00;;;;;;5078920;27;88525;-69
2022/03/20 12:58:37;;;;;;;6.83;5.23;;;18.60;41.00;;;;;;5082243;27;90074;-69
2022/03/20 13:01:10;;;;;;;7.20;4.70;;;18.60;41.00;;;;;;5082214;27;89969;-69
2022/03/20 13:03:38;;;;;;;8.07;4.90;;;18.60;41.00;;;;;;5065370;27;88688;-68
2022/03/20 13:06:08;;;;;;;9.27;5.20;;;18.60;41.00;;;;;;5062089;27;88554;-68
2022/03/20 13:08:37;;;;;;;6.67;4.33;;;18.60;41.60;;;;;;5061719;27;91025;-69
2022/03/20 13:11:48;;;;;;;9.10;5.53;;;18.60;41.00;;;;;;5061649;27;88951;-68
2022/03/20 13:14:01;;;;;;;8.33;4.83;;;18.60;41.00;;;;;;5061884;27;89964;-69
2022/03/20 13:16:29;;;;;;;9.57;5.37;;;18.60;41.00;;;;;;5062153;27;88528;-68
2022/03/20 13:18:57;;;;;;;10.13;4.80;;;18.60;41.00;;;;;;5061441;27;90580;-68
2022/03/20 13:21:26;;;;;;;7.10;5.10;;;18.60;41.00;;;;;;5060659;27;90765;-68
2022/03/20 13:23:56;;;;;;;8.33;5.57;;;18.60;41.00;;;;;;5062165;27;92480;-68
2022/03/20 13:26:24;;;;;;;8.03;4.80;;;18.60;41.00;;;;;;5061629;27;88415;-69
2022/03/20 13:28:54;;;;;;;6.73;4.83;;;18.60;41.00;;;;;;5065378;27;90954;-69
2022/03/20 13:31:23;;;;;;;6.77;5.30;;;18.60;41.00;;;;;;5077287;27;90012;-68
2022/03/20 13:33:53;;;;;;;8.00;5.23;;;18.60;41.00;;;;;;5060541;27;88556;-69
2022/03/20 13:36:22;;;;;;;7.43;5.57;;;18.60;41.00;;;;;;5062155;27;88481;-69